sensor_id;sensor_type;location;lat;lon;timestamp;P1;durP1;ratioP1;P2;durP2;ratioP2
23260;SDS011;11799;47.740;-3.390;2023-08-01T00:00:04;6.47;;;1.67;;
23260;SDS011;11799;47.740;-3.390;2023-08-01T00:02:38;3.67;;;1.73;;
23260;SDS011;11799;47.740;-3.390;2023-08-01T00:05:05;4.43;;;1.30;;
23260;SDS011;11799;47.740;-3.390;2023-08-01T00:07:30;2.35;;;1.52;;
23260;SDS011;11799;47.740;-3.390;2023-08-01T00:09:56;3.38;;;1.65;;
23260;SDS011;11799;47.740;-3.390;2023-08-01T00:12:23;3.92;;;1.58;;
23260;SDS011;11799;47.740;-3.390;2023-08-01T00:14:49;4.32;;;1.50;;
23260;SDS011;11799;47.740;-3.390;2023-08-01T00:17:15;6.47;;;1.80;;
23260;SDS011;11799;47.740;-3.390;2023-08-01T00:19:40;7.53;;;1.73;;
23260;SDS011;11799;47.740;-3.390;2023-08-01T00:22:06;6.55;;;1.60;;
23260;SDS011;11799;47.740;-3.390;2023-08-01T00:24:31;4.00;;;1.58;;
23260;SDS011;11799;47.740;-3.390;2023-08-01T00:26:57;2.15;;;1.42;;
23260;SDS011;11799;47.740;-3.390;2023-08-01T00:29:22;5.32;;;1.70;;
23260;SDS011;11799;47.740;-3.390;2023-08-01T00:31:48;3.25;;;1.42;;
23260;SDS011;11799;47.740;-3.390;2023-08-01T00:34:14;4.18;;;1.90;;
23260;SDS011;11799;47.740;-3.390;2023-08-01T00:36:40;4.10;;;1.90;;
23260;SDS011;11799;47.740;-3.390;2023-08-01T00:39:05;5.57;;;1.58;;
23260;SDS011;11799;47.740;-3.390;2023-08-01T00:41:31;4.68;;;1.70;;
23260;SDS011;11799;47.740;-3.390;2023-08-01T00:43:57;4.38;;;1.73;;
23260;SDS011;11799;47.740;-3.390;2023-08-01T00:46:22;4.13;;;1.98;;
23260;SDS011;11799;47.740;-3.390;2023-08-01T00:48:48;6.07;;;2.10;;
23260;SDS011;11799;47.740;-3.390;2023-08-01T00:51:13;4.85;;;1.70;;
23260;SDS011;11799;47.740;-3.390;2023-08-01T00:53:40;5.55;;;1.83;;
23260;SDS011;11799;47.740;-3.390;2023-08-01T00:56:05;3.85;;;1.90;;
23260;SDS011;11799;47.740;-3.390;2023-08-01T00:58:31;5.07;;;2.08;;
23260;SDS011;11799;47.740;-3.390;2023-08-01T01:00:57;5.40;;;2.08;;
23260;SDS011;11799;47.740;-3.390;2023-08-01T01:03:22;6.13;;;2.22;;
23260;SDS011;11799;47.740;-3.390;2023-08-01T01:06:01;3.95;;;1.95;;
23260;SDS011;11799;47.740;-3.390;2023-08-01T01:08:28;4.32;;;2.20;;
23260;SDS011;11799;47.740;-3.390;2023-08-01T01:10:53;4.93;;;2.10;;
23260;SDS011;11799;47.740;-3.390;2023-08-01T01:13:19;3.03;;;1.92;;
23260;SDS011;11799;47.740;-3.390;2023-08-01T01:15:45;5.45;;;2.03;;
23260;SDS011;11799;47.740;-3.390;2023-08-01T01:18:10;9.48;;;2.50;;
23260;SDS011;11799;47.740;-3.390;2023-08-01T01:20:36;9.27;;;2.33;;
23260;SDS011;11799;47.740;-3.390;2023-08-01T01:23:05;6.90;;;2.53;;
23260;SDS011;11799;47.740;-3.390;2023-08-01T01:25:33;5.30;;;2.05;;
23260;SDS011;11799;47.740;-3.390;2023-08-01T01:28:00;5.65;;;2.40;;
23260;SDS011;11799;47.740;-3.390;2023-08-01T01:30:29;4.35;;;1.98;;
23260;SDS011;11799;47.740;-3.390;2023-08-01T01:32:56;10.85;;;2.72;;
23260;SDS011;11799;47.740;-3.390;2023-08-01T01:35:23;5.90;;;2.00;;
23260;SDS011;11799;47.740;-3.390;2023-08-01T01:37:49;6.05;;;2.45;;
23260;SDS011;11799;47.740;-3.390;2023-08-01T01:40:14;6.93;;;2.33;;
23260;SDS011;11799;47.740;-3.390;2023-08-01T01:42:40;13.05;;;2.67;;
23260;SDS011;11799;47.740;-3.390;2023-08-01T01:45:05;7.45;;;2.78;;
23260;SDS011;11799;47.740;-3.390;2023-08-01T01:47:31;16.05;;;3.38;;
23260;SDS011;11799;47.740;-3.390;2023-08-01T01:49:57;7.68;;;2.95;;
23260;SDS011;11799;47.740;-3.390;2023-08-01T01:52:22;7.20;;;2.72;;
23260;SDS011;11799;47.740;-3.390;2023-08-01T01:54:48;11.85;;;3.03;;
23260;SDS011;11799;47.740;-3.390;2023-08-01T01:57:13;12.38;;;3.33;;
23260;SDS011;11799;47.740;-3.390;2023-08-01T01:59:39;11.18;;;2.97;;
23260;SDS011;11799;47.740;-3.390;2023-08-01T02:02:05;8.68;;;3.00;;
23260;SDS011;11799;47.740;-3.390;2023-08-01T02:04:30;10.40;;;3.00;;
23260;SDS011;11799;47.740;-3.390;2023-08-01T02:06:56;9.20;;;2.95;;
23260;SDS011;11799;47.740;-3.390;2023-08-01T02:09:22;13.88;;;3.10;;
23260;SDS011;11799;47.740;-3.390;2023-08-01T02:11:48;11.10;;;3.22;;
23260;SDS011;11799;47.740;-3.390;2023-08-01T02:14:14;9.48;;;2.75;;
23260;SDS011;11799;47.740;-3.390;2023-08-01T02:16:39;9.02;;;2.72;;
23260;SDS011;11799;47.740;-3.390;2023-08-01T02:19:05;13.38;;;3.00;;
23260;SDS011;11799;47.740;-3.390;2023-08-01T02:21:33;12.93;;;3.17;;
23260;SDS011;11799;47.740;-3.390;2023-08-01T02:23:58;11.20;;;3.65;;
23260;SDS011;11799;47.740;-3.390;2023-08-01T02:26:24;8.30;;;3.10;;
23260;SDS011;11799;47.740;-3.390;2023-08-01T02:28:50;10.10;;;3.05;;
23260;SDS011;11799;47.740;-3.390;2023-08-01T02:31:16;11.13;;;3.20;;
23260;SDS011;11799;47.740;-3.390;2023-08-01T02:33:42;7.18;;;2.80;;
23260;SDS011;11799;47.740;-3.390;2023-08-01T02:36:07;8.35;;;3.17;;
23260;SDS011;11799;47.740;-3.390;2023-08-01T02:38:33;9.18;;;3.03;;
23260;SDS011;11799;47.740;-3.390;2023-08-01T02:40:58;7.82;;;2.95;;
23260;SDS011;11799;47.740;-3.390;2023-08-01T02:43:24;16.35;;;3.63;;
23260;SDS011;11799;47.740;-3.390;2023-08-01T02:45:50;8.52;;;2.90;;
23260;SDS011;11799;47.740;-3.390;2023-08-01T02:48:16;9.40;;;3.15;;
23260;SDS011;11799;47.740;-3.390;2023-08-01T02:50:41;6.32;;;2.97;;
23260;SDS011;11799;47.740;-3.390;2023-08-01T02:53:07;6.53;;;3.10;;
23260;SDS011;11799;47.740;-3.390;2023-08-01T02:55:33;16.10;;;3.65;;
23260;SDS011;11799;47.740;-3.390;2023-08-01T02:57:58;7.57;;;2.95;;
23260;SDS011;11799;47.740;-3.390;2023-08-01T03:00:24;10.93;;;3.25;;
23260;SDS011;11799;47.740;-3.390;2023-08-01T03:02:50;6.07;;;2.83;;
23260;SDS011;11799;47.740;-3.390;2023-08-01T03:05:16;7.53;;;3.03;;
23260;SDS011;11799;47.740;-3.390;2023-08-01T03:07:42;10.63;;;3.22;;
23260;SDS011;11799;47.740;-3.390;2023-08-01T03:10:08;10.18;;;3.10;;
23260;SDS011;11799;47.740;-3.390;2023-08-01T03:12:36;10.95;;;2.85;;
23260;SDS011;11799;47.740;-3.390;2023-08-01T03:15:02;13.75;;;3.60;;
23260;SDS011;11799;47.740;-3.390;2023-08-01T03:17:28;13.57;;;3.13;;
23260;SDS011;11799;47.740;-3.390;2023-08-01T03:19:54;12.60;;;3.38;;
23260;SDS011;11799;47.740;-3.390;2023-08-01T03:22:19;6.32;;;3.13;;
23260;SDS011;11799;47.740;-3.390;2023-08-01T03:24:45;12.15;;;3.78;;
23260;SDS011;11799;47.740;-3.390;2023-08-01T03:27:10;11.30;;;3.10;;
23260;SDS011;11799;47.740;-3.390;2023-08-01T03:29:36;10.32;;;3.20;;
23260;SDS011;11799;47.740;-3.390;2023-08-01T03:32:02;17.40;;;3.65;;
23260;SDS011;11799;47.740;-3.390;2023-08-01T03:34:27;6.68;;;2.65;;
23260;SDS011;11799;47.740;-3.390;2023-08-01T03:36:53;8.50;;;3.42;;
23260;SDS011;11799;47.740;-3.390;2023-08-01T03:39:19;10.63;;;3.10;;
23260;SDS011;11799;47.740;-3.390;2023-08-01T03:41:45;11.38;;;2.78;;
23260;SDS011;11799;47.740;-3.390;2023-08-01T03:44:10;15.85;;;3.42;;
23260;SDS011;11799;47.740;-3.390;2023-08-01T03:46:36;10.27;;;2.92;;
23260;SDS011;11799;47.740;-3.390;2023-08-01T03:49:01;20.70;;;3.95;;
23260;SDS011;11799;47.740;-3.390;2023-08-01T03:51:27;11.00;;;3.20;;
23260;SDS011;11799;47.740;-3.390;2023-08-01T03:53:52;12.15;;;3.15;;
23260;SDS011;11799;47.740;-3.390;2023-08-01T03:56:18;10.30;;;3.30;;
23260;SDS011;11799;47.740;-3.390;2023-08-01T03:58:43;8.60;;;2.72;;
23260;SDS011;11799;47.740;-3.390;2023-08-01T04:01:09;16.67;;;3.45;;
23260;SDS011;11799;47.740;-3.390;2023-08-01T04:03:34;12.80;;;3.03;;
23260;SDS011;11799;47.740;-3.390;2023-08-01T04:06:00;13.90;;;3.95;;
23260;SDS011;11799;47.740;-3.390;2023-08-01T04:08:26;19.30;;;3.70;;
23260;SDS011;11799;47.740;-3.390;2023-08-01T04:10:51;22.48;;;3.70;;
23260;SDS011;11799;47.740;-3.390;2023-08-01T04:13:17;11.93;;;3.03;;
23260;SDS011;11799;47.740;-3.390;2023-08-01T04:15:42;14.88;;;3.40;;
23260;SDS011;11799;47.740;-3.390;2023-08-01T04:18:08;11.80;;;3.40;;
23260;SDS011;11799;47.740;-3.390;2023-08-01T04:20:33;11.88;;;3.38;;
23260;SDS011;11799;47.740;-3.390;2023-08-01T04:22:59;16.73;;;3.63;;
23260;SDS011;11799;47.740;-3.390;2023-08-01T04:25:24;12.95;;;3.55;;
23260;SDS011;11799;47.740;-3.390;2023-08-01T04:27:52;18.77;;;3.53;;
23260;SDS011;11799;47.740;-3.390;2023-08-01T04:30:17;19.67;;;4.32;;
23260;SDS011;11799;47.740;-3.390;2023-08-01T04:32:43;16.58;;;4.00;;
23260;SDS011;11799;47.740;-3.390;2023-08-01T04:35:08;20.20;;;4.32;;
23260;SDS011;11799;47.740;-3.390;2023-08-01T04:37:34;20.63;;;4.43;;
23260;SDS011;11799;47.740;-3.390;2023-08-01T04:40:00;26.85;;;4.75;;
23260;SDS011;11799;47.740;-3.390;2023-08-01T04:42:25;15.95;;;4.07;;
23260;SDS011;11799;47.740;-3.390;2023-08-01T04:44:51;11.52;;;3.75;;
23260;SDS011;11799;47.740;-3.390;2023-08-01T04:47:18;19.42;;;3.70;;
23260;SDS011;11799;47.740;-3.390;2023-08-01T04:49:44;19.00;;;4.35;;
23260;SDS011;11799;47.740;-3.390;2023-08-01T04:52:10;17.25;;;3.95;;
23260;SDS011;11799;47.740;-3.390;2023-08-01T04:54:35;18.05;;;4.20;;
23260;SDS011;11799;47.740;-3.390;2023-08-01T04:57:01;18.17;;;4.10;;
23260;SDS011;11799;47.740;-3.390;2023-08-01T04:59:26;19.42;;;3.85;;
23260;SDS011;11799;47.740;-3.390;2023-08-01T05:01:52;24.92;;;4.07;;
23260;SDS011;11799;47.740;-3.390;2023-08-01T05:04:17;23.08;;;3.95;;
23260;SDS011;11799;47.740;-3.390;2023-08-01T05:06:43;17.45;;;4.20;;
23260;SDS011;11799;47.740;-3.390;2023-08-01T05:09:08;31.13;;;4.70;;
23260;SDS011;11799;47.740;-3.390;2023-08-01T05:11:34;19.02;;;4.00;;
23260;SDS011;11799;47.740;-3.390;2023-08-01T05:13:59;15.77;;;4.30;;
23260;SDS011;11799;47.740;-3.390;2023-08-01T05:16:25;16.33;;;4.30;;
23260;SDS011;11799;47.740;-3.390;2023-08-01T05:18:50;13.25;;;4.13;;
23260;SDS011;11799;47.740;-3.390;2023-08-01T05:21:16;16.85;;;4.55;;
23260;SDS011;11799;47.740;-3.390;2023-08-01T05:23:41;20.95;;;4.85;;
23260;SDS011;11799;47.740;-3.390;2023-08-01T05:26:07;16.88;;;4.45;;
23260;SDS011;11799;47.740;-3.390;2023-08-01T05:28:32;18.02;;;4.88;;
23260;SDS011;11799;47.740;-3.390;2023-08-01T05:30:58;16.77;;;4.85;;
23260;SDS011;11799;47.740;-3.390;2023-08-01T05:33:23;20.55;;;4.53;;
23260;SDS011;11799;47.740;-3.390;2023-08-01T05:35:49;21.50;;;4.70;;
23260;SDS011;11799;47.740;-3.390;2023-08-01T05:38:15;24.17;;;4.72;;
23260;SDS011;11799;47.740;-3.390;2023-08-01T05:40:41;19.55;;;4.50;;
23260;SDS011;11799;47.740;-3.390;2023-08-01T05:43:06;21.88;;;5.13;;
23260;SDS011;11799;47.740;-3.390;2023-08-01T05:45:36;19.08;;;4.68;;
23260;SDS011;11799;47.740;-3.390;2023-08-01T05:48:02;21.42;;;4.97;;
23260;SDS011;11799;47.740;-3.390;2023-08-01T05:50:28;21.63;;;4.38;;
23260;SDS011;11799;47.740;-3.390;2023-08-01T05:52:54;15.40;;;4.28;;
23260;SDS011;11799;47.740;-3.390;2023-08-01T05:55:19;21.85;;;5.22;;
23260;SDS011;11799;47.740;-3.390;2023-08-01T05:57:46;26.95;;;4.95;;
23260;SDS011;11799;47.740;-3.390;2023-08-01T06:00:11;14.90;;;4.05;;
23260;SDS011;11799;47.740;-3.390;2023-08-01T06:02:37;18.00;;;4.85;;
23260;SDS011;11799;47.740;-3.390;2023-08-01T06:05:03;28.77;;;5.15;;
23260;SDS011;11799;47.740;-3.390;2023-08-01T06:07:29;20.30;;;5.28;;
23260;SDS011;11799;47.740;-3.390;2023-08-01T06:09:54;21.85;;;4.82;;
23260;SDS011;11799;47.740;-3.390;2023-08-01T06:12:20;21.42;;;5.07;;
23260;SDS011;11799;47.740;-3.390;2023-08-01T06:14:46;16.98;;;4.32;;
23260;SDS011;11799;47.740;-3.390;2023-08-01T06:17:12;15.80;;;4.60;;
23260;SDS011;11799;47.740;-3.390;2023-08-01T06:19:38;16.50;;;4.03;;
23260;SDS011;11799;47.740;-3.390;2023-08-01T06:22:04;22.60;;;4.82;;
23260;SDS011;11799;47.740;-3.390;2023-08-01T06:24:29;23.30;;;5.00;;
23260;SDS011;11799;47.740;-3.390;2023-08-01T06:26:55;21.02;;;5.38;;
23260;SDS011;11799;47.740;-3.390;2023-08-01T06:29:20;21.50;;;5.03;;
23260;SDS011;11799;47.740;-3.390;2023-08-01T06:31:46;21.15;;;5.15;;
23260;SDS011;11799;47.740;-3.390;2023-08-01T06:34:11;27.75;;;5.43;;
23260;SDS011;11799;47.740;-3.390;2023-08-01T06:36:37;17.90;;;5.20;;
23260;SDS011;11799;47.740;-3.390;2023-08-01T06:39:02;19.88;;;5.57;;
23260;SDS011;11799;47.740;-3.390;2023-08-01T06:41:28;21.98;;;5.28;;
23260;SDS011;11799;47.740;-3.390;2023-08-01T06:43:54;23.90;;;5.65;;
23260;SDS011;11799;47.740;-3.390;2023-08-01T06:46:20;29.65;;;5.78;;
23260;SDS011;11799;47.740;-3.390;2023-08-01T06:48:45;24.63;;;5.47;;
23260;SDS011;11799;47.740;-3.390;2023-08-01T06:51:11;20.63;;;5.25;;
23260;SDS011;11799;47.740;-3.390;2023-08-01T06:53:36;30.55;;;5.40;;
23260;SDS011;11799;47.740;-3.390;2023-08-01T06:56:02;20.20;;;5.20;;
23260;SDS011;11799;47.740;-3.390;2023-08-01T06:58:27;19.83;;;5.57;;
23260;SDS011;11799;47.740;-3.390;2023-08-01T07:00:53;28.17;;;5.95;;
23260;SDS011;11799;47.740;-3.390;2023-08-01T07:03:18;20.85;;;5.72;;
23260;SDS011;11799;47.740;-3.390;2023-08-01T07:05:44;20.50;;;4.88;;
23260;SDS011;11799;47.740;-3.390;2023-08-01T07:08:09;21.27;;;5.03;;
23260;SDS011;11799;47.740;-3.390;2023-08-01T07:10:35;27.58;;;5.28;;
23260;SDS011;11799;47.740;-3.390;2023-08-01T07:13:01;22.90;;;6.25;;
23260;SDS011;11799;47.740;-3.390;2023-08-01T07:15:30;16.73;;;5.23;;
23260;SDS011;11799;47.740;-3.390;2023-08-01T07:17:57;21.27;;;5.15;;
23260;SDS011;11799;47.740;-3.390;2023-08-01T07:20:23;23.35;;;5.57;;
23260;SDS011;11799;47.740;-3.390;2023-08-01T07:22:48;22.80;;;5.63;;
23260;SDS011;11799;47.740;-3.390;2023-08-01T07:25:14;18.85;;;5.38;;
23260;SDS011;11799;47.740;-3.390;2023-08-01T07:27:41;22.50;;;5.25;;
23260;SDS011;11799;47.740;-3.390;2023-08-01T07:30:07;20.70;;;5.15;;
23260;SDS011;11799;47.740;-3.390;2023-08-01T07:32:33;20.77;;;5.43;;
23260;SDS011;11799;47.740;-3.390;2023-08-01T07:35:00;23.13;;;5.97;;
23260;SDS011;11799;47.740;-3.390;2023-08-01T07:37:25;21.63;;;6.07;;
23260;SDS011;11799;47.740;-3.390;2023-08-01T07:39:53;20.13;;;5.97;;
23260;SDS011;11799;47.740;-3.390;2023-08-01T07:42:19;20.42;;;5.63;;
23260;SDS011;11799;47.740;-3.390;2023-08-01T07:44:45;20.92;;;5.72;;
23260;SDS011;11799;47.740;-3.390;2023-08-01T07:47:10;24.75;;;5.55;;
23260;SDS011;11799;47.740;-3.390;2023-08-01T07:49:36;20.27;;;5.22;;
23260;SDS011;11799;47.740;-3.390;2023-08-01T07:52:02;21.88;;;5.35;;
23260;SDS011;11799;47.740;-3.390;2023-08-01T07:54:27;20.67;;;5.95;;
23260;SDS011;11799;47.740;-3.390;2023-08-01T07:56:53;21.42;;;5.90;;
23260;SDS011;11799;47.740;-3.390;2023-08-01T07:59:18;24.63;;;5.85;;
23260;SDS011;11799;47.740;-3.390;2023-08-01T08:01:44;22.77;;;5.53;;
23260;SDS011;11799;47.740;-3.390;2023-08-01T08:04:09;18.45;;;5.47;;
23260;SDS011;11799;47.740;-3.390;2023-08-01T08:06:35;23.38;;;6.13;;
23260;SDS011;11799;47.740;-3.390;2023-08-01T08:09:01;31.42;;;6.55;;
23260;SDS011;11799;47.740;-3.390;2023-08-01T08:11:26;21.20;;;5.60;;
23260;SDS011;11799;47.740;-3.390;2023-08-01T08:13:52;19.88;;;5.70;;
23260;SDS011;11799;47.740;-3.390;2023-08-01T08:16:17;27.95;;;6.40;;
23260;SDS011;11799;47.740;-3.390;2023-08-01T08:18:43;24.42;;;6.72;;
23260;SDS011;11799;47.740;-3.390;2023-08-01T08:21:08;23.15;;;6.22;;
23260;SDS011;11799;47.740;-3.390;2023-08-01T08:23:34;27.20;;;6.22;;
23260;SDS011;11799;47.740;-3.390;2023-08-01T08:25:59;28.15;;;6.88;;
23260;SDS011;11799;47.740;-3.390;2023-08-01T08:28:29;27.73;;;6.20;;
23260;SDS011;11799;47.740;-3.390;2023-08-01T08:30:56;30.10;;;6.75;;
23260;SDS011;11799;47.740;-3.390;2023-08-01T08:33:22;29.42;;;6.65;;
23260;SDS011;11799;47.740;-3.390;2023-08-01T08:35:48;32.63;;;7.35;;
23260;SDS011;11799;47.740;-3.390;2023-08-01T08:38:14;28.17;;;6.78;;
23260;SDS011;11799;47.740;-3.390;2023-08-01T08:40:40;30.95;;;6.82;;
23260;SDS011;11799;47.740;-3.390;2023-08-01T08:43:09;30.17;;;7.25;;
23260;SDS011;11799;47.740;-3.390;2023-08-01T08:45:36;25.67;;;6.40;;
23260;SDS011;11799;47.740;-3.390;2023-08-01T08:48:09;32.47;;;6.60;;
23260;SDS011;11799;47.740;-3.390;2023-08-01T08:50:42;26.80;;;6.40;;
23260;SDS011;11799;47.740;-3.390;2023-08-01T08:53:08;26.50;;;5.85;;
23260;SDS011;11799;47.740;-3.390;2023-08-01T08:55:38;28.65;;;6.05;;
23260;SDS011;11799;47.740;-3.390;2023-08-01T08:58:05;28.45;;;6.53;;
23260;SDS011;11799;47.740;-3.390;2023-08-01T09:00:31;29.13;;;5.57;;
23260;SDS011;11799;47.740;-3.390;2023-08-01T09:02:56;21.77;;;5.18;;
23260;SDS011;11799;47.740;-3.390;2023-08-01T09:05:23;24.40;;;5.38;;
23260;SDS011;11799;47.740;-3.390;2023-08-01T09:07:54;18.30;;;5.38;;
23260;SDS011;11799;47.740;-3.390;2023-08-01T09:10:22;23.58;;;6.13;;
23260;SDS011;11799;47.740;-3.390;2023-08-01T09:12:48;21.98;;;6.38;;
23260;SDS011;11799;47.740;-3.390;2023-08-01T09:15:14;24.23;;;6.18;;
23260;SDS011;11799;47.740;-3.390;2023-08-01T09:17:50;19.13;;;6.30;;
23260;SDS011;11799;47.740;-3.390;2023-08-01T09:20:16;20.55;;;5.70;;
23260;SDS011;11799;47.740;-3.390;2023-08-01T09:22:45;28.75;;;6.68;;
23260;SDS011;11799;47.740;-3.390;2023-08-01T09:25:12;22.70;;;6.10;;
23260;SDS011;11799;47.740;-3.390;2023-08-01T09:27:39;21.30;;;6.35;;
23260;SDS011;11799;47.740;-3.390;2023-08-01T09:30:09;28.33;;;6.80;;
23260;SDS011;11799;47.740;-3.390;2023-08-01T09:32:37;29.67;;;7.07;;
23260;SDS011;11799;47.740;-3.390;2023-08-01T09:35:03;30.23;;;7.70;;
23260;SDS011;11799;47.740;-3.390;2023-08-01T09:37:41;31.67;;;8.18;;
23260;SDS011;11799;47.740;-3.390;2023-08-01T09:40:08;24.73;;;7.45;;
23260;SDS011;11799;47.740;-3.390;2023-08-01T09:42:38;26.05;;;6.22;;
23260;SDS011;11799;47.740;-3.390;2023-08-01T09:45:14;21.15;;;6.80;;
23260;SDS011;11799;47.740;-3.390;2023-08-01T09:47:41;21.25;;;6.63;;
23260;SDS011;11799;47.740;-3.390;2023-08-01T09:50:11;25.02;;;6.28;;
23260;SDS011;11799;47.740;-3.390;2023-08-01T09:52:45;27.23;;;6.15;;
23260;SDS011;11799;47.740;-3.390;2023-08-01T09:55:17;27.48;;;6.72;;
23260;SDS011;11799;47.740;-3.390;2023-08-01T09:57:57;27.88;;;6.40;;
23260;SDS011;11799;47.740;-3.390;2023-08-01T10:00:27;29.90;;;6.30;;
23260;SDS011;11799;47.740;-3.390;2023-08-01T10:02:55;25.70;;;6.10;;
23260;SDS011;11799;47.740;-3.390;2023-08-01T10:05:29;24.85;;;6.90;;
23260;SDS011;11799;47.740;-3.390;2023-08-01T10:07:59;32.13;;;7.13;;
23260;SDS011;11799;47.740;-3.390;2023-08-01T10:10:27;29.60;;;6.95;;
23260;SDS011;11799;47.740;-3.390;2023-08-01T10:12:54;28.80;;;6.93;;
23260;SDS011;11799;47.740;-3.390;2023-08-01T10:15:21;31.30;;;7.47;;
23260;SDS011;11799;47.740;-3.390;2023-08-01T10:17:47;29.00;;;6.75;;
23260;SDS011;11799;47.740;-3.390;2023-08-01T10:20:13;40.60;;;7.78;;
23260;SDS011;11799;47.740;-3.390;2023-08-01T10:22:40;23.23;;;6.32;;
23260;SDS011;11799;47.740;-3.390;2023-08-01T10:25:07;24.80;;;6.13;;
23260;SDS011;11799;47.740;-3.390;2023-08-01T10:27:34;32.08;;;6.82;;
23260;SDS011;11799;47.740;-3.390;2023-08-01T10:30:02;28.27;;;6.65;;
23260;SDS011;11799;47.740;-3.390;2023-08-01T10:32:31;24.95;;;5.95;;
23260;SDS011;11799;47.740;-3.390;2023-08-01T10:34:58;28.13;;;5.95;;
23260;SDS011;11799;47.740;-3.390;2023-08-01T10:37:24;25.65;;;5.85;;
23260;SDS011;11799;47.740;-3.390;2023-08-01T10:39:56;28.65;;;6.15;;
23260;SDS011;11799;47.740;-3.390;2023-08-01T10:42:25;28.48;;;6.35;;
23260;SDS011;11799;47.740;-3.390;2023-08-01T10:44:51;28.13;;;6.82;;
23260;SDS011;11799;47.740;-3.390;2023-08-01T10:47:26;26.95;;;6.28;;
23260;SDS011;11799;47.740;-3.390;2023-08-01T10:49:52;27.35;;;6.32;;
23260;SDS011;11799;47.740;-3.390;2023-08-01T10:52:18;33.28;;;7.35;;
23260;SDS011;11799;47.740;-3.390;2023-08-01T10:57:21;30.92;;;7.25;;
23260;SDS011;11799;47.740;-3.390;2023-08-01T10:59:46;32.15;;;7.28;;
23260;SDS011;11799;47.740;-3.390;2023-08-01T11:02:19;28.83;;;7.20;;
23260;SDS011;11799;47.740;-3.390;2023-08-01T11:04:59;28.98;;;8.45;;
23260;SDS011;11799;47.740;-3.390;2023-08-01T11:07:25;35.80;;;8.10;;
23260;SDS011;11799;47.740;-3.390;2023-08-01T11:12:34;28.48;;;7.50;;
23260;SDS011;11799;47.740;-3.390;2023-08-01T11:15:01;30.02;;;7.45;;
23260;SDS011;11799;47.740;-3.390;2023-08-01T11:17:27;31.73;;;7.40;;
23260;SDS011;11799;47.740;-3.390;2023-08-01T11:19:59;33.13;;;7.18;;
23260;SDS011;11799;47.740;-3.390;2023-08-01T11:22:29;31.30;;;6.75;;
23260;SDS011;11799;47.740;-3.390;2023-08-01T11:24:55;26.63;;;6.85;;
23260;SDS011;11799;47.740;-3.390;2023-08-01T11:27:20;35.78;;;6.50;;
23260;SDS011;11799;47.740;-3.390;2023-08-01T11:29:46;38.85;;;6.88;;
23260;SDS011;11799;47.740;-3.390;2023-08-01T11:32:11;35.05;;;6.60;;
23260;SDS011;11799;47.740;-3.390;2023-08-01T11:34:40;37.88;;;7.32;;
23260;SDS011;11799;47.740;-3.390;2023-08-01T11:37:10;29.63;;;6.60;;
23260;SDS011;11799;47.740;-3.390;2023-08-01T11:39:36;25.73;;;5.82;;
23260;SDS011;11799;47.740;-3.390;2023-08-01T11:42:02;30.02;;;6.32;;
23260;SDS011;11799;47.740;-3.390;2023-08-01T11:44:28;28.30;;;6.05;;
23260;SDS011;11799;47.740;-3.390;2023-08-01T11:46:55;24.80;;;6.45;;
23260;SDS011;11799;47.740;-3.390;2023-08-01T11:49:21;26.75;;;6.57;;
23260;SDS011;11799;47.740;-3.390;2023-08-01T11:51:48;29.90;;;6.60;;
23260;SDS011;11799;47.740;-3.390;2023-08-01T11:54:14;28.83;;;6.55;;
23260;SDS011;11799;47.740;-3.390;2023-08-01T11:56:40;26.65;;;6.78;;
23260;SDS011;11799;47.740;-3.390;2023-08-01T11:59:07;33.30;;;6.90;;
23260;SDS011;11799;47.740;-3.390;2023-08-01T12:01:44;28.35;;;6.32;;
23260;SDS011;11799;47.740;-3.390;2023-08-01T12:04:12;21.02;;;5.57;;
23260;SDS011;11799;47.740;-3.390;2023-08-01T12:06:48;29.92;;;7.05;;
23260;SDS011;11799;47.740;-3.390;2023-08-01T12:09:14;29.92;;;6.35;;
23260;SDS011;11799;47.740;-3.390;2023-08-01T12:11:40;28.38;;;6.18;;
23260;SDS011;11799;47.740;-3.390;2023-08-01T12:14:10;21.23;;;5.72;;
23260;SDS011;11799;47.740;-3.390;2023-08-01T12:16:38;25.00;;;5.82;;
23260;SDS011;11799;47.740;-3.390;2023-08-01T12:19:04;18.27;;;4.95;;
23260;SDS011;11799;47.740;-3.390;2023-08-01T12:21:33;22.90;;;5.35;;
23260;SDS011;11799;47.740;-3.390;2023-08-01T12:23:59;22.20;;;4.93;;
23260;SDS011;11799;47.740;-3.390;2023-08-01T12:26:25;21.10;;;4.78;;
23260;SDS011;11799;47.740;-3.390;2023-08-01T12:28:51;17.70;;;4.57;;
23260;SDS011;11799;47.740;-3.390;2023-08-01T12:31:17;22.08;;;5.05;;
23260;SDS011;11799;47.740;-3.390;2023-08-01T12:33:46;22.13;;;5.10;;
23260;SDS011;11799;47.740;-3.390;2023-08-01T12:36:12;29.10;;;6.10;;
23260;SDS011;11799;47.740;-3.390;2023-08-01T12:38:39;19.58;;;5.70;;
23260;SDS011;11799;47.740;-3.390;2023-08-01T12:41:04;22.90;;;6.13;;
23260;SDS011;11799;47.740;-3.390;2023-08-01T12:43:30;28.33;;;6.75;;
23260;SDS011;11799;47.740;-3.390;2023-08-01T12:45:56;30.17;;;7.28;;
23260;SDS011;11799;47.740;-3.390;2023-08-01T12:48:23;34.80;;;7.20;;
23260;SDS011;11799;47.740;-3.390;2023-08-01T12:50:49;29.55;;;6.85;;
23260;SDS011;11799;47.740;-3.390;2023-08-01T12:53:15;26.63;;;6.65;;
23260;SDS011;11799;47.740;-3.390;2023-08-01T12:55:44;35.42;;;7.63;;
23260;SDS011;11799;47.740;-3.390;2023-08-01T12:58:10;35.80;;;7.00;;
23260;SDS011;11799;47.740;-3.390;2023-08-01T13:00:36;35.95;;;7.50;;
23260;SDS011;11799;47.740;-3.390;2023-08-01T13:03:01;29.50;;;6.55;;
23260;SDS011;11799;47.740;-3.390;2023-08-01T13:05:28;28.65;;;7.10;;
23260;SDS011;11799;47.740;-3.390;2023-08-01T13:07:53;34.88;;;7.00;;
23260;SDS011;11799;47.740;-3.390;2023-08-01T13:10:19;34.80;;;7.20;;
23260;SDS011;11799;47.740;-3.390;2023-08-01T13:12:44;25.80;;;6.88;;
23260;SDS011;11799;47.740;-3.390;2023-08-01T13:15:10;33.45;;;6.93;;
23260;SDS011;11799;47.740;-3.390;2023-08-01T13:17:35;33.85;;;6.90;;
23260;SDS011;11799;47.740;-3.390;2023-08-01T13:20:01;28.23;;;6.88;;
23260;SDS011;11799;47.740;-3.390;2023-08-01T13:22:26;31.90;;;7.25;;
23260;SDS011;11799;47.740;-3.390;2023-08-01T13:24:52;32.67;;;7.45;;
23260;SDS011;11799;47.740;-3.390;2023-08-01T13:27:17;31.63;;;7.95;;
23260;SDS011;11799;47.740;-3.390;2023-08-01T13:29:43;24.00;;;7.10;;
23260;SDS011;11799;47.740;-3.390;2023-08-01T13:32:08;27.88;;;7.32;;
23260;SDS011;11799;47.740;-3.390;2023-08-01T13:34:34;47.15;;;8.25;;
23260;SDS011;11799;47.740;-3.390;2023-08-01T13:36:59;32.03;;;7.13;;
23260;SDS011;11799;47.740;-3.390;2023-08-01T13:39:25;33.33;;;8.63;;
23260;SDS011;11799;47.740;-3.390;2023-08-01T13:41:50;31.05;;;8.02;;
23260;SDS011;11799;47.740;-3.390;2023-08-01T13:44:16;32.05;;;7.32;;
23260;SDS011;11799;47.740;-3.390;2023-08-01T13:46:41;29.13;;;7.18;;
23260;SDS011;11799;47.740;-3.390;2023-08-01T13:49:07;36.67;;;8.32;;
23260;SDS011;11799;47.740;-3.390;2023-08-01T13:51:33;33.72;;;7.70;;
23260;SDS011;11799;47.740;-3.390;2023-08-01T13:53:59;35.38;;;8.35;;
23260;SDS011;11799;47.740;-3.390;2023-08-01T13:56:25;37.60;;;8.68;;
23260;SDS011;11799;47.740;-3.390;2023-08-01T13:58:51;31.10;;;8.05;;
23260;SDS011;11799;47.740;-3.390;2023-08-01T14:01:17;29.13;;;7.80;;
23260;SDS011;11799;47.740;-3.390;2023-08-01T14:03:46;37.42;;;7.80;;
23260;SDS011;11799;47.740;-3.390;2023-08-01T14:06:12;33.97;;;8.23;;
23260;SDS011;11799;47.740;-3.390;2023-08-01T14:08:40;29.75;;;7.43;;
23260;SDS011;11799;47.740;-3.390;2023-08-01T14:11:07;31.52;;;7.28;;
23260;SDS011;11799;47.740;-3.390;2023-08-01T14:13:34;27.80;;;7.32;;
23260;SDS011;11799;47.740;-3.390;2023-08-01T14:16:00;30.33;;;6.70;;
23260;SDS011;11799;47.740;-3.390;2023-08-01T14:18:29;28.27;;;6.32;;
23260;SDS011;11799;47.740;-3.390;2023-08-01T14:20:55;29.13;;;6.57;;
23260;SDS011;11799;47.740;-3.390;2023-08-01T14:23:21;25.98;;;6.70;;